createdAt,value
2019-03-18T00:00:31.677Z,4.60
2019-03-18T00:03:00.201Z,4.60
2019-03-18T00:05:28.805Z,4.60
2019-03-18T00:07:57.340Z,4.50
2019-03-18T00:10:25.896Z,4.60
2019-03-18T00:12:54.489Z,4.50
2019-03-18T00:15:23.015Z,4.50
2019-03-18T00:17:51.574Z,4.50
2019-03-18T00:20:20.105Z,4.50
2019-03-18T00:22:48.666Z,4.50
2019-03-18T00:25:17.445Z,4.50
2019-03-18T00:27:45.927Z,4.50
2019-03-18T00:30:18.670Z,4.50
2019-03-18T00:32:47.141Z,4.30
2019-03-18T00:35:15.694Z,4.30
2019-03-18T00:37:44.227Z,4.40
2019-03-18T00:40:15.855Z,4.30
2019-03-18T00:42:44.485Z,4.40
2019-03-18T00:45:15.121Z,4.40
2019-03-18T00:47:43.760Z,4.30
2019-03-18T00:50:16.616Z,4.20
2019-03-18T00:52:45.145Z,4.30
2019-03-18T00:55:13.817Z,4.30
2019-03-18T00:57:42.359Z,4.30
2019-03-18T01:00:15.664Z,4.30
2019-03-18T01:02:44.149Z,4.30
2019-03-18T01:05:13.096Z,4.20
2019-03-18T01:07:41.788Z,4.20
2019-03-18T01:10:14.454Z,4.20
2019-03-18T01:12:43.188Z,4.10
2019-03-18T01:15:12.393Z,4.10
2019-03-18T01:17:40.857Z,4.10
2019-03-18T01:20:10.960Z,4.10
2019-03-18T01:22:39.511Z,4.20
2019-03-18T01:25:09.492Z,4.20
2019-03-18T01:27:37.983Z,4.10
2019-03-18T01:30:11.256Z,4.10
2019-03-18T01:32:39.701Z,4.10
2019-03-18T01:35:10.089Z,4.00
2019-03-18T01:37:38.529Z,4.10
2019-03-18T01:40:11.562Z,4.00
2019-03-18T01:42:40.085Z,4.00
2019-03-18T01:45:09.886Z,3.90
2019-03-18T01:47:38.421Z,4.00
2019-03-18T01:50:10.061Z,3.90
2019-03-18T01:52:38.523Z,4.00
2019-03-18T01:55:07.661Z,4.00
2019-03-18T01:57:36.121Z,4.00
2019-03-18T02:00:09.673Z,4.00
2019-03-18T02:02:38.198Z,4.00
2019-03-18T02:05:08.569Z,4.00
2019-03-18T02:07:37.170Z,4.00
2019-03-18T02:10:11.015Z,4.00
2019-03-18T02:12:39.506Z,4.00
2019-03-18T02:15:10.312Z,3.90
2019-03-18T02:17:38.784Z,3.90
2019-03-18T02:20:12.791Z,4.00
2019-03-18T02:22:41.279Z,4.00
2019-03-18T02:25:10.461Z,3.90
2019-03-18T02:27:38.932Z,3.80
2019-03-18T02:30:12.629Z,3.80
2019-03-18T02:32:41.125Z,3.80
2019-03-18T02:35:09.724Z,3.90
2019-03-18T02:37:38.183Z,3.80
2019-03-18T02:40:10.623Z,3.70
2019-03-18T02:42:39.165Z,3.70
2019-03-18T02:45:09.656Z,3.70
2019-03-18T02:47:38.102Z,3.70
2019-03-18T02:50:07.624Z,3.60
2019-03-18T02:52:36.090Z,3.80
2019-03-18T02:55:06.166Z,3.80
2019-03-18T02:57:34.631Z,3.80
2019-03-18T03:00:04.357Z,3.70
2019-03-18T03:02:32.845Z,3.60
2019-03-18T03:05:01.398Z,3.60
2019-03-18T03:07:29.966Z,3.60
2019-03-18T03:09:58.426Z,3.60
2019-03-18T03:12:26.897Z,3.70
2019-03-18T03:14:55.369Z,3.60
2019-03-18T03:17:24.112Z,3.70
2019-03-18T03:19:52.568Z,3.70
2019-03-18T03:22:21.055Z,3.70
2019-03-18T03:24:49.517Z,3.80
2019-03-18T03:27:18.031Z,3.80
2019-03-18T03:29:46.814Z,3.90
2019-03-18T03:32:15.296Z,3.90
2019-03-18T03:34:43.745Z,3.80
2019-03-18T03:37:12.286Z,3.90
2019-03-18T03:39:40.749Z,4.00
2019-03-18T03:42:09.301Z,4.00
2019-03-18T03:44:37.755Z,3.90
2019-03-18T03:47:06.219Z,3.90
2019-03-18T03:49:34.679Z,3.90
2019-03-18T03:52:03.183Z,3.80
2019-03-18T03:54:31.694Z,3.80
2019-03-18T03:57:00.394Z,3.90
2019-03-18T03:59:29.025Z,3.80
2019-03-18T04:01:57.539Z,3.80
2019-03-18T04:04:25.988Z,3.80
2019-03-18T04:06:54.598Z,3.80
2019-03-18T04:09:23.209Z,3.80
2019-03-18T04:11:51.667Z,3.80
2019-03-18T04:14:20.418Z,3.90
2019-03-18T04:17:00.880Z,3.80
2019-03-18T04:19:19.070Z,3.80
2019-03-18T04:21:50.659Z,3.80
2019-03-18T04:24:17.799Z,3.90
2019-03-18T04:26:46.276Z,3.80
2019-03-18T04:29:15.019Z,3.80
2019-03-18T04:31:43.487Z,3.70
2019-03-18T04:34:11.944Z,3.80
2019-03-18T04:36:40.420Z,3.70
2019-03-18T04:39:08.937Z,3.70
2019-03-18T04:41:37.473Z,3.70
2019-03-18T04:44:06.018Z,3.80
2019-03-18T04:46:34.501Z,3.70
2019-03-18T04:49:03.022Z,3.70
2019-03-18T04:51:31.503Z,3.80
2019-03-18T04:54:00.053Z,3.70
2019-03-18T04:56:28.514Z,3.80
2019-03-18T04:58:56.975Z,3.80
2019-03-18T05:01:25.773Z,3.70
2019-03-18T05:03:54.247Z,3.70
2019-03-18T05:06:22.700Z,3.70
2019-03-18T05:08:51.170Z,3.60
2019-03-18T05:11:19.903Z,3.70
2019-03-18T05:13:48.415Z,3.70
2019-03-18T05:16:17.019Z,3.70
2019-03-18T05:18:45.461Z,3.70
2019-03-18T05:21:13.929Z,3.70
2019-03-18T05:23:42.401Z,3.60
2019-03-18T05:26:10.881Z,3.70
2019-03-18T05:28:39.345Z,3.70
2019-03-18T05:31:08.159Z,3.60
2019-03-18T05:33:36.625Z,3.60
2019-03-18T05:36:05.078Z,3.60
2019-03-18T05:38:33.542Z,3.50
2019-03-18T05:41:02.003Z,3.50
2019-03-18T05:43:30.501Z,2.50
2019-03-18T05:45:59.370Z,3.60
2019-03-18T05:48:27.849Z,3.50
2019-03-18T05:50:56.316Z,3.50
2019-03-18T05:53:24.772Z,3.50
2019-03-18T05:55:53.255Z,3.50
2019-03-18T05:58:21.746Z,3.50
2019-03-18T06:00:50.236Z,3.40
2019-03-18T06:03:18.705Z,3.40
2019-03-18T06:05:47.161Z,3.50
2019-03-18T06:08:15.638Z,3.50
2019-03-18T06:10:44.118Z,3.60
2019-03-18T06:13:12.575Z,3.60
2019-03-18T06:15:41.044Z,3.60
2019-03-18T06:18:09.839Z,3.50
2019-03-18T06:20:38.298Z,3.50
2019-03-18T06:23:06.767Z,3.60
2019-03-18T06:25:35.240Z,3.60
2019-03-18T06:28:03.769Z,3.60
2019-03-18T06:30:32.242Z,3.60
2019-03-18T06:33:00.737Z,3.40
2019-03-18T06:35:29.520Z,3.50
2019-03-18T06:37:57.980Z,3.50
2019-03-18T06:40:26.427Z,3.50
2019-03-18T06:42:54.899Z,3.50
2019-03-18T06:45:23.384Z,3.40
2019-03-18T06:48:03.847Z,3.40
2019-03-18T06:50:22.038Z,3.40
2019-03-18T06:52:50.524Z,3.40
2019-03-18T06:55:19.003Z,3.40
2019-03-18T06:57:47.465Z,3.50
2019-03-18T07:00:16.923Z,3.50
2019-03-18T07:02:45.384Z,3.50
2019-03-18T07:05:14.386Z,3.50
2019-03-18T07:07:42.919Z,3.50
2019-03-18T07:10:13.162Z,3.60
2019-03-18T07:12:41.721Z,3.60
2019-03-18T07:15:11.148Z,3.60
2019-03-18T07:17:39.616Z,3.60
2019-03-18T07:20:15.595Z,3.50
2019-03-18T07:22:44.193Z,3.60
2019-03-18T07:25:12.791Z,3.50
2019-03-18T07:27:41.660Z,3.50
2019-03-18T07:30:13.009Z,3.50
2019-03-18T07:32:41.488Z,3.50
2019-03-18T07:35:10.083Z,3.50
2019-03-18T07:37:38.865Z,3.50
2019-03-18T07:40:11.348Z,3.50
2019-03-18T07:42:40.012Z,3.40
2019-03-18T07:45:10.679Z,3.40
2019-03-18T07:47:39.444Z,3.40
2019-03-18T07:50:10.254Z,3.30
2019-03-18T07:52:39.067Z,3.30
2019-03-18T07:55:08.549Z,3.30
2019-03-18T07:57:37.027Z,3.30
2019-03-18T08:00:11.148Z,3.40
2019-03-18T08:02:39.858Z,3.40
2019-03-18T08:05:09.966Z,3.40
2019-03-18T08:07:38.409Z,3.40
2019-03-18T08:10:14.708Z,3.50
2019-03-18T08:12:43.273Z,3.50
2019-03-18T08:15:12.780Z,3.50
2019-03-18T08:17:41.245Z,3.50
2019-03-18T08:20:11.737Z,3.40
2019-03-18T08:22:40.202Z,3.60
2019-03-18T08:25:10.023Z,3.60
2019-03-18T08:27:38.474Z,3.60
2019-03-18T08:30:17.291Z,3.60
2019-03-18T08:32:45.800Z,3.60
2019-03-18T08:35:14.265Z,3.50
2019-03-18T08:37:42.756Z,3.50
2019-03-18T08:40:12.064Z,3.60
2019-03-18T08:42:40.550Z,3.50
2019-03-18T08:45:13.780Z,3.50
2019-03-18T08:47:42.641Z,3.50
2019-03-18T08:50:12.352Z,3.60
2019-03-18T08:52:41.341Z,3.60
2019-03-18T08:55:10.942Z,3.60
2019-03-18T08:57:39.478Z,3.70
2019-03-18T09:00:11.092Z,3.60
2019-03-18T09:02:39.577Z,3.60
2019-03-18T09:05:09.057Z,3.60
2019-03-18T09:07:37.547Z,3.70
2019-03-18T09:10:11.539Z,3.60
2019-03-18T09:12:40.015Z,3.60
2019-03-18T09:15:10.404Z,3.60
2019-03-18T09:17:38.883Z,3.60
2019-03-18T09:20:13.016Z,3.60
2019-03-18T09:22:41.492Z,3.70
2019-03-18T09:25:10.993Z,3.70
2019-03-18T09:27:39.508Z,3.70
2019-03-18T09:30:13.366Z,3.70
2019-03-18T09:32:41.902Z,3.70
2019-03-18T09:35:10.920Z,3.80
2019-03-18T09:37:39.550Z,3.80
2019-03-18T09:40:10.475Z,3.80
2019-03-18T09:42:39.241Z,3.70
2019-03-18T09:45:10.842Z,3.70
2019-03-18T09:47:39.577Z,3.70
2019-03-18T09:50:09.799Z,3.70
2019-03-18T09:52:40.060Z,3.80
2019-03-18T09:55:09.155Z,3.90
2019-03-18T09:57:37.701Z,3.90
2019-03-18T10:00:12.447Z,3.90
2019-03-18T10:02:41.330Z,3.90
2019-03-18T10:05:09.874Z,3.90
2019-03-18T10:07:38.317Z,3.90
2019-03-18T10:10:12.201Z,3.90
2019-03-18T10:12:40.736Z,3.90
2019-03-18T10:15:17.583Z,3.90
2019-03-18T10:17:46.137Z,3.90
2019-03-18T10:20:14.651Z,3.90
2019-03-18T10:22:43.520Z,3.90
2019-03-18T10:25:12.065Z,3.90
2019-03-18T10:27:40.593Z,3.90
2019-03-18T10:30:16.149Z,3.90
2019-03-18T10:32:44.675Z,4.00
2019-03-18T10:35:13.291Z,4.00
2019-03-18T10:37:42.095Z,4.00
2019-03-18T10:40:15.099Z,4.00
2019-03-18T10:42:43.547Z,4.10
2019-03-18T10:45:13.280Z,4.10
2019-03-18T10:47:41.911Z,4.10
2019-03-18T10:50:15.343Z,4.10
2019-03-18T10:52:43.820Z,4.10
2019-03-18T10:55:12.535Z,4.20
2019-03-18T10:57:41.150Z,4.20
2019-03-18T11:00:14.491Z,4.40
2019-03-18T11:02:45.101Z,4.40
2019-03-18T11:05:14.029Z,4.50
2019-03-18T11:07:42.909Z,4.50
2019-03-18T11:10:12.905Z,4.70
2019-03-18T11:12:41.849Z,4.80
2019-03-18T11:15:15.266Z,4.80
2019-03-18T11:17:43.832Z,4.70
2019-03-18T11:20:13.931Z,4.70
2019-03-18T11:22:42.437Z,4.70
2019-03-18T11:25:17.194Z,4.70
2019-03-18T11:27:45.746Z,4.60
2019-03-18T11:30:19.091Z,4.70
2019-03-18T11:32:47.543Z,4.70
2019-03-18T11:35:16.026Z,4.70
2019-03-18T11:37:44.627Z,4.70
2019-03-18T11:40:18.659Z,4.70
2019-03-18T11:42:47.255Z,4.60
2019-03-18T11:45:16.682Z,4.80
2019-03-18T11:47:45.281Z,4.90
2019-03-18T11:50:17.832Z,5.00
2019-03-18T11:52:46.430Z,5.10
2019-03-18T11:55:17.218Z,5.10
2019-03-18T11:57:45.735Z,5.10
2019-03-18T12:00:19.097Z,5.10
2019-03-18T12:02:47.637Z,5.10
2019-03-18T12:05:20.902Z,5.10
2019-03-18T12:07:49.433Z,5.10
2019-03-18T12:10:18.996Z,5.10
2019-03-18T12:12:47.463Z,5.10
2019-03-18T12:15:21.589Z,5.10
2019-03-18T12:17:50.591Z,5.10
2019-03-18T12:20:24.678Z,5.20
2019-03-18T12:22:49.313Z,5.10
2019-03-18T12:25:17.946Z,5.10
2019-03-18T12:27:46.496Z,5.30
2019-03-18T12:30:23.102Z,5.30
2019-03-18T12:32:51.653Z,5.30
2019-03-18T12:35:20.339Z,5.30
2019-03-18T12:37:48.875Z,5.30
2019-03-18T12:40:18.087Z,5.30
2019-03-18T12:42:46.696Z,5.20
2019-03-18T12:45:18.793Z,5.20
2019-03-18T12:47:47.480Z,5.20
2019-03-18T12:50:38.519Z,5.20
2019-03-18T12:52:53.871Z,5.30
2019-03-18T12:55:22.361Z,5.50
2019-03-18T12:57:50.827Z,5.60
2019-03-18T13:00:22.010Z,5.70
2019-03-18T13:02:50.554Z,5.80
2019-03-18T13:05:19.353Z,5.90
2019-03-18T13:07:47.975Z,6.00
2019-03-18T13:10:21.807Z,5.90
2019-03-18T13:12:50.577Z,5.90
2019-03-18T13:15:19.994Z,5.80
2019-03-18T13:17:48.608Z,5.80
2019-03-18T13:20:19.070Z,5.70
2019-03-18T13:22:47.582Z,5.80
2019-03-18T13:25:16.087Z,5.80
2019-03-18T13:27:44.749Z,5.70
2019-03-18T13:30:17.050Z,5.70
2019-03-18T13:32:45.746Z,5.70
2019-03-18T13:35:14.811Z,5.70
2019-03-18T13:37:43.356Z,5.80
2019-03-18T13:40:18.980Z,5.80
2019-03-18T13:42:47.582Z,5.70
2019-03-18T13:45:18.770Z,5.60
2019-03-18T13:47:47.288Z,5.60
2019-03-18T13:50:16.979Z,5.50
2019-03-18T13:52:45.515Z,5.60
2019-03-18T13:55:14.066Z,5.50
2019-03-18T13:57:42.519Z,5.70
2019-03-18T14:00:18.942Z,5.60
2019-03-18T14:02:47.463Z,5.70
2019-03-18T14:05:16.065Z,5.60
2019-03-18T14:07:44.604Z,5.50
2019-03-18T14:10:18.283Z,5.60
2019-03-18T14:12:46.737Z,5.50
2019-03-18T14:15:22.726Z,5.60
2019-03-18T14:17:51.414Z,5.60
2019-03-18T14:20:27.423Z,5.70
2019-03-18T14:22:55.988Z,5.60
2019-03-18T14:25:24.520Z,5.70
2019-03-18T14:27:53.368Z,5.70
2019-03-18T14:30:22.763Z,5.80
2019-03-18T14:32:51.225Z,6.00
2019-03-18T14:35:21.553Z,6.10
2019-03-18T14:37:49.899Z,6.20
2019-03-18T14:40:25.143Z,6.40
2019-03-18T14:42:53.626Z,6.60
2019-03-18T14:45:25.217Z,6.70
2019-03-18T14:47:53.944Z,6.80
2019-03-18T14:50:22.461Z,6.90
2019-03-18T14:52:51.091Z,7.10
2019-03-18T14:55:19.652Z,7.20
2019-03-18T14:57:48.253Z,7.40
2019-03-18T15:00:19.789Z,7.50
2019-03-18T15:02:48.343Z,7.60
2019-03-18T15:05:16.905Z,7.70
2019-03-18T15:07:45.345Z,7.90
2019-03-18T15:10:15.567Z,7.50
2019-03-18T15:12:44.107Z,7.60
2019-03-18T15:15:14.733Z,7.50
2019-03-18T15:17:43.185Z,7.60
2019-03-18T15:20:13.389Z,7.80
2019-03-18T15:22:41.877Z,7.80
2019-03-18T15:25:16.656Z,7.90
2019-03-18T15:27:45.174Z,7.70
2019-03-18T15:30:15.998Z,7.80
2019-03-18T15:32:44.460Z,7.70
2019-03-18T15:35:13.537Z,7.60
2019-03-18T15:37:42.005Z,7.40
2019-03-18T15:40:13.289Z,7.20
2019-03-18T15:42:41.777Z,7.10
2019-03-18T15:45:12.729Z,7.10
2019-03-18T15:47:41.207Z,6.80
2019-03-18T15:50:13.114Z,6.80
2019-03-18T15:52:41.823Z,6.70
2019-03-18T15:55:10.405Z,6.70
2019-03-18T15:57:38.887Z,6.70
2019-03-18T16:00:19.033Z,6.60
2019-03-18T16:02:47.547Z,6.50
2019-03-18T16:05:16.054Z,6.40
2019-03-18T16:07:44.610Z,6.40
2019-03-18T16:10:14.723Z,6.30
2019-03-18T16:12:43.561Z,6.30
2019-03-18T16:15:13.692Z,6.20
2019-03-18T16:17:42.485Z,6.30
2019-03-18T16:20:15.632Z,6.20
2019-03-18T16:22:44.181Z,6.20
2019-03-18T16:25:13.068Z,6.10
2019-03-18T16:27:41.543Z,6.00
2019-03-18T16:30:15.171Z,6.00
2019-03-18T16:32:43.775Z,6.00
2019-03-18T16:35:15.863Z,6.00
2019-03-18T16:37:44.120Z,6.00
2019-03-18T16:40:23.899Z,5.90
2019-03-18T16:42:52.390Z,5.90
2019-03-18T16:45:21.093Z,5.80
2019-03-18T16:47:49.573Z,5.90
2019-03-18T16:50:22.707Z,5.80
2019-03-18T16:52:51.251Z,5.80
2019-03-18T16:55:19.895Z,5.70
2019-03-18T16:57:48.699Z,5.70
2019-03-18T17:00:21.083Z,5.50
2019-03-18T17:02:49.659Z,5.50
2019-03-18T17:05:18.350Z,5.60
2019-03-18T17:07:46.821Z,5.50
2019-03-18T17:10:16.157Z,5.50
2019-03-18T17:12:44.720Z,5.40
2019-03-18T17:15:18.227Z,5.30
2019-03-18T17:17:46.714Z,5.30
2019-03-18T17:20:15.905Z,5.20
2019-03-18T17:22:49.428Z,5.10
2019-03-18T17:25:17.717Z,4.90
2019-03-18T17:27:46.225Z,5.00
2019-03-18T17:30:16.623Z,5.00
2019-03-18T17:32:45.249Z,5.00
2019-03-18T17:35:14.639Z,4.90
2019-03-18T17:37:43.269Z,4.90
2019-03-18T17:40:18.820Z,4.90
2019-03-18T17:42:47.285Z,4.80
2019-03-18T17:45:16.787Z,4.70
2019-03-18T17:47:45.715Z,4.70
2019-03-18T17:50:20.393Z,4.70
2019-03-18T17:53:00.987Z,4.70
2019-03-18T17:55:19.123Z,4.80
2019-03-18T17:57:47.827Z,4.70
2019-03-18T18:00:18.826Z,4.60
2019-03-18T18:02:47.318Z,4.50
2019-03-18T18:05:16.060Z,4.50
2019-03-18T18:07:44.637Z,4.60
2019-03-18T18:10:13.242Z,4.70
2019-03-18T18:12:41.706Z,4.70
2019-03-18T18:15:11.870Z,4.60
2019-03-18T18:17:40.348Z,4.50
2019-03-18T18:20:10.977Z,4.50
2019-03-18T18:22:41.039Z,4.60
2019-03-18T18:25:11.054Z,4.60
2019-03-18T18:27:39.593Z,4.50
2019-03-18T18:30:12.595Z,4.50
2019-03-18T18:32:41.346Z,4.50
2019-03-18T18:35:10.632Z,4.40
2019-03-18T18:37:39.130Z,4.50
2019-03-18T18:40:21.834Z,4.30
2019-03-18T18:42:50.317Z,4.30
2019-03-18T18:45:21.151Z,4.30
2019-03-18T18:47:48.955Z,4.30
2019-03-18T18:50:17.592Z,4.20
2019-03-18T18:52:46.126Z,4.20
2019-03-18T18:55:15.024Z,4.10
2019-03-18T18:57:43.736Z,3.90
2019-03-18T19:00:22.872Z,3.90
2019-03-18T19:02:51.401Z,4.10
2019-03-18T19:05:20.019Z,4.10
2019-03-18T19:07:48.502Z,4.20
2019-03-18T19:10:20.541Z,4.20
2019-03-18T19:12:49.141Z,4.30
2019-03-18T19:15:20.407Z,4.30
2019-03-18T19:17:49.033Z,4.10
2019-03-18T19:20:17.873Z,4.00
2019-03-18T19:22:46.392Z,4.00
2019-03-18T19:25:15.802Z,3.90
2019-03-18T19:27:44.326Z,3.90
2019-03-18T19:30:20.996Z,3.90
2019-03-18T19:32:49.555Z,3.80
2019-03-18T19:35:18.089Z,3.80
2019-03-18T19:37:46.542Z,3.70
2019-03-18T19:40:17.322Z,3.70
2019-03-18T19:42:45.953Z,3.70
2019-03-18T19:45:14.747Z,3.60
2019-03-18T19:47:43.299Z,3.60
2019-03-18T19:50:14.848Z,3.60
2019-03-18T19:52:43.382Z,3.60
2019-03-18T19:55:12.177Z,3.50
2019-03-18T19:57:40.980Z,3.60
2019-03-18T20:00:12.572Z,3.60
2019-03-18T20:02:41.282Z,3.50
2019-03-18T20:05:14.943Z,3.30
2019-03-18T20:07:40.037Z,3.40
2019-03-18T20:10:14.282Z,3.30
2019-03-18T20:12:42.803Z,3.20
2019-03-18T20:15:15.755Z,3.20
2019-03-18T20:17:46.046Z,3.20
2019-03-18T20:20:15.830Z,3.00
2019-03-18T20:22:44.926Z,3.10
2019-03-18T20:25:14.136Z,3.10
2019-03-18T20:27:42.671Z,3.10
2019-03-18T20:30:13.989Z,3.00
2019-03-18T20:32:42.446Z,3.00
2019-03-18T20:35:19.381Z,2.80
2019-03-18T20:37:47.850Z,2.80
2019-03-18T20:40:17.340Z,2.60
2019-03-18T20:42:46.238Z,2.50
2019-03-18T20:45:17.140Z,2.50
2019-03-18T20:47:45.661Z,2.60
2019-03-18T20:50:23.789Z,2.70
2019-03-18T20:52:52.463Z,2.80
2019-03-18T20:55:20.916Z,2.80
2019-03-18T20:57:49.400Z,2.90
2019-03-18T21:00:21.492Z,2.90
2019-03-18T21:02:50.039Z,2.70
2019-03-18T21:05:18.725Z,2.80
2019-03-18T21:07:47.226Z,2.80
2019-03-18T21:10:20.561Z,2.90
2019-03-18T21:12:49.157Z,3.00
2019-03-18T21:15:18.188Z,3.20
2019-03-18T21:17:46.705Z,3.40
2019-03-18T21:20:27.205Z,3.30
2019-03-18T21:22:56.027Z,3.30
2019-03-18T21:25:24.482Z,3.40
2019-03-18T21:27:52.969Z,3.50
2019-03-18T21:30:22.298Z,3.40
2019-03-18T21:32:50.906Z,3.30
2019-03-18T21:35:19.451Z,3.30
2019-03-18T21:37:47.981Z,3.20
2019-03-18T21:40:22.859Z,3.20
2019-03-18T21:42:51.453Z,3.30
2019-03-18T21:45:23.269Z,3.30
2019-03-18T21:47:51.265Z,3.20
2019-03-18T21:50:19.846Z,3.20
2019-03-18T21:52:48.395Z,3.10
2019-03-18T21:55:17.899Z,3.10
2019-03-18T21:57:46.358Z,3.00
2019-03-18T22:00:19.002Z,2.90
2019-03-18T22:02:47.594Z,2.80
2019-03-18T22:05:16.165Z,2.80
2019-03-18T22:07:44.779Z,2.70
2019-03-18T22:10:20.029Z,2.70
2019-03-18T22:12:50.369Z,2.60
2019-03-18T22:15:18.976Z,2.60
2019-03-18T22:17:47.529Z,2.60
2019-03-18T22:20:17.020Z,2.60
2019-03-18T22:22:45.544Z,2.60
2019-03-18T22:25:14.745Z,2.30
2019-03-18T22:27:43.368Z,2.40
2019-03-18T22:30:14.030Z,2.40
2019-03-18T22:32:42.533Z,2.40
2019-03-18T22:35:11.284Z,2.50
2019-03-18T22:37:39.756Z,2.40
2019-03-18T22:40:12.330Z,2.50
2019-03-18T22:42:43.969Z,2.50
2019-03-18T22:45:13.921Z,2.50
2019-03-18T22:47:42.421Z,2.40
2019-03-18T22:50:12.072Z,2.40
2019-03-18T22:52:40.602Z,2.30
2019-03-18T22:55:10.857Z,2.30
2019-03-18T22:57:39.603Z,2.30
2019-03-18T23:00:32.334Z,2.20
2019-03-18T23:03:00.783Z,2.10
2019-03-18T23:05:29.307Z,2.10
2019-03-18T23:07:57.779Z,2.20
2019-03-18T23:10:26.306Z,2.10
2019-03-18T23:12:54.792Z,2.00
2019-03-18T23:15:23.233Z,2.00
2019-03-18T23:17:51.778Z,2.10
2019-03-18T23:20:20.234Z,2.00
2019-03-18T23:22:48.721Z,1.90
2019-03-18T23:25:17.185Z,2.00
2019-03-18T23:27:45.653Z,2.00
2019-03-18T23:30:14.935Z,2.00
2019-03-18T23:32:43.425Z,2.10
2019-03-18T23:35:12.588Z,2.10
2019-03-18T23:37:41.038Z,2.00
2019-03-18T23:40:11.934Z,1.90
2019-03-18T23:42:40.737Z,1.80
2019-03-18T23:45:10.351Z,1.70
2019-03-18T23:47:38.838Z,1.80
2019-03-18T23:50:14.674Z,1.90
2019-03-18T23:52:43.113Z,1.60
2019-03-18T23:55:18.862Z,1.70
2019-03-18T23:57:41.978Z,1.50
